Time;durP1;ratioP1;P1;durP2;ratioP2;P2;SDS_P1;SDS_P2;PMS_P1;PMS_P2;Temp;Humidity;BMP_temperature;BMP_pressure;BME280_temperature;BME280_humidity;BME280_pressure;Samples;Min_cycle;Max_cycle;Signal;HPM_P1;HPM_P2
2021/06/12 00:01:52;;;;;;;4.35;3.95;;;24.20;94.30;;;;;;5132396;27;20198;-77
2021/06/12 00:04:18;;;;;;;6.40;4.20;;;24.20;94.30;;;;;;5131887;27;20233;-77
2021/06/12 00:06:45;;;;;;;4.88;4.45;;;24.10;94.50;;;;;;5131172;27;20216;-77
2021/06/12 00:09:12;;;;;;;5.10;4.70;;;24.10;94.60;;;;;;5132261;27;20259;-77
2021/06/12 00:11:38;;;;;;;5.35;4.35;;;24.10;94.60;;;;;;5131922;27;20318;-77
2021/06/12 00:14:04;;;;;;;4.75;4.45;;;24.10;94.40;;;;;;5132093;27;20231;-77
2021/06/12 00:16:30;;;;;;;4.68;4.28;;;24.10;94.60;;;;;;5131528;27;20212;-77
2021/06/12 00:18:56;;;;;;;5.45;4.18;;;24.10;94.60;;;;;;5131535;27;20213;-75
2021/06/12 00:21:22;;;;;;;4.68;4.30;;;24.10;94.90;;;;;;5131622;27;20216;-76
2021/06/12 00:23:50;;;;;;;5.88;4.40;;;24.10;95.10;;;;;;5131518;27;20202;-75
2021/06/12 00:26:16;;;;;;;4.57;4.18;;;24.10;95.30;;;;;;5131476;27;20197;-75
2021/06/12 00:28:42;;;;;;;5.25;4.60;;;24.00;95.50;;;;;;5131118;27;20197;-79
2021/06/12 00:31:08;;;;;;;4.80;4.50;;;24.00;95.80;;;;;;5130773;27;20205;-78
2021/06/12 00:33:34;;;;;;;5.57;4.70;;;24.00;96.10;;;;;;5130717;27;20668;-79
2021/06/12 00:36:01;;;;;;;5.72;5.22;;;24.10;96.50;;;;;;5131018;27;20263;-78
2021/06/12 00:38:27;;;;;;;5.50;5.00;;;24.10;96.90;;;;;;5131448;27;20205;-78
2021/06/12 00:40:54;;;;;;;8.02;4.65;;;24.00;96.70;;;;;;5131589;27;20201;-78
2021/06/12 00:43:20;;;;;;;4.43;4.13;;;24.00;96.50;;;;;;5131286;27;20205;-78
2021/06/12 00:45:47;;;;;;;4.75;4.35;;;24.00;96.30;;;;;;5131158;27;20202;-77
2021/06/12 00:48:13;;;;;;;4.53;4.03;;;23.90;95.80;;;;;;5131170;27;20209;-77
2021/06/12 00:50:40;;;;;;;4.68;4.40;;;23.90;95.30;;;;;;5130679;27;20212;-77
2021/06/12 00:53:06;;;;;;;4.65;4.25;;;23.80;95.10;;;;;;5131160;27;20286;-77
2021/06/12 00:55:33;;;;;;;4.43;4.10;;;23.80;95.10;;;;;;5130776;27;20671;-78
2021/06/12 00:58:00;;;;;;;4.90;4.50;;;23.80;95.20;;;;;;5131290;27;20198;-78
2021/06/12 01:00:27;;;;;;;8.43;4.43;;;23.70;95.20;;;;;;5130847;27;20603;-77
2021/06/12 01:02:53;;;;;;;4.40;4.00;;;23.80;95.20;;;;;;5131178;27;20209;-75
2021/06/12 01:05:21;;;;;;;4.47;4.18;;;23.70;95.30;;;;;;5130880;27;20237;-75
2021/06/12 01:07:47;;;;;;;4.68;4.25;;;23.70;95.30;;;;;;5131137;27;20573;-76
2021/06/12 01:10:15;;;;;;;4.55;4.15;;;23.70;95.40;;;;;;5131139;27;20216;-75
2021/06/12 01:13:12;;;;;;;4.55;4.25;;;23.70;95.60;;;;;;5130772;27;20232;-75
2021/06/12 01:15:49;;;;;;;5.85;4.30;;;23.70;95.70;;;;;;5130515;27;20647;-75
2021/06/12 01:18:18;;;;;;;4.63;4.32;;;23.70;95.60;;;;;;5130894;27;20196;-75
2021/06/12 01:21:02;;;;;;;4.70;4.20;;;23.70;95.50;;;;;;5130310;27;20263;-75
2021/06/12 01:24:07;;;;;;;5.05;4.60;;;23.70;95.50;;;;;;5130860;27;20197;-75
2021/06/12 01:26:45;;;;;;;4.50;4.10;;;23.50;95.40;;;;;;5130472;27;20240;-75
2021/06/12 01:29:23;;;;;;;4.93;4.57;;;23.50;95.60;;;;;;5130385;27;20539;-75
2021/06/12 01:31:52;;;;;;;5.18;4.78;;;23.60;95.70;;;;;;5130448;27;20217;-75
2021/06/12 01:34:20;;;;;;;4.68;4.30;;;23.50;95.60;;;;;;5130453;27;20197;-75
2021/06/12 01:36:47;;;;;;;3.97;3.72;;;23.50;95.70;;;;;;5130245;27;20217;-75
2021/06/12 01:39:14;;;;;;;4.50;4.20;;;23.50;95.80;;;;;;5130229;27;20262;-78
2021/06/12 01:41:41;;;;;;;4.70;4.40;;;23.50;95.90;;;;;;5130001;27;20743;-78
2021/06/12 01:44:09;;;;;;;4.85;4.63;;;23.50;96.00;;;;;;5129976;27;20651;-78
2021/06/12 01:46:38;;;;;;;4.78;4.47;;;23.30;96.10;;;;;;5130176;27;20216;-78
2021/06/12 01:49:07;;;;;;;5.22;4.82;;;23.30;96.20;;;;;;5130465;27;20213;-78
2021/06/12 01:51:34;;;;;;;4.93;4.53;;;23.40;96.30;;;;;;5129931;27;20236;-76
2021/06/12 01:54:01;;;;;;;5.40;4.80;;;23.40;96.40;;;;;;5130168;27;20372;-76
2021/06/12 01:56:27;;;;;;;7.60;5.00;;;23.40;96.40;;;;;;5129908;27;20205;-76
2021/06/12 01:58:55;;;;;;;5.03;4.72;;;23.40;96.50;;;;;;5130227;27;20205;-77
2021/06/12 02:01:23;;;;;;;5.43;5.03;;;23.40;96.50;;;;;;5129845;27;20201;-76
2021/06/12 02:03:52;;;;;;;4.95;4.55;;;23.30;96.70;;;;;;5129761;27;20249;-76
2021/06/12 02:06:21;;;;;;;4.88;4.57;;;23.20;96.80;;;;;;5129847;27;20194;-76
2021/06/12 02:08:49;;;;;;;5.45;4.93;;;23.20;96.90;;;;;;5129408;27;20329;-76
2021/06/12 02:11:17;;;;;;;5.78;5.10;;;23.20;96.90;;;;;;5129337;27;20201;-76
2021/06/12 02:13:45;;;;;;;6.18;5.10;;;23.20;97.00;;;;;;5129404;27;20219;-76
2021/06/12 02:16:13;;;;;;;5.68;5.05;;;23.20;97.00;;;;;;5129514;27;20197;-76
2021/06/12 02:18:41;;;;;;;5.70;5.15;;;23.10;97.10;;;;;;5129399;27;20208;-76
2021/06/12 02:21:07;;;;;;;5.63;5.22;;;23.00;97.30;;;;;;5129737;27;20629;-77
2021/06/12 02:23:35;;;;;;;5.78;5.38;;;22.80;97.60;;;;;;5129452;27;20209;-75
2021/06/12 02:26:02;;;;;;;5.30;4.93;;;22.50;98.30;;;;;;5129321;28;20240;-75
2021/06/12 02:28:34;;;;;;;5.20;4.65;;;22.50;98.40;;;;;;5129254;28;20205;-75
2021/06/12 02:31:03;;;;;;;6.22;5.13;;;22.60;98.40;;;;;;5128781;27;20193;-76
2021/06/12 02:33:32;;;;;;;5.32;4.93;;;22.70;98.30;;;;;;5129380;28;20317;-77
2021/06/12 02:36:00;;;;;;;5.78;5.10;;;22.70;98.20;;;;;;5129343;28;20771;-77
2021/06/12 02:38:27;;;;;;;5.63;5.10;;;22.80;98.20;;;;;;5129462;28;20274;-77
2021/06/12 02:40:54;;;;;;;5.50;5.20;;;22.90;98.10;;;;;;5129315;28;20664;-78
2021/06/12 02:43:21;;;;;;;5.85;5.50;;;22.90;98.00;;;;;;5129680;28;20209;-77
2021/06/12 02:45:47;;;;;;;5.70;5.10;;;22.90;98.00;;;;;;5128649;28;20737;-79
2021/06/12 02:48:17;;;;;;;5.97;5.47;;;22.90;97.90;;;;;;5129629;28;20206;-79
2021/06/12 02:50:46;;;;;;;5.53;5.20;;;22.80;98.00;;;;;;5129505;28;20190;-79
2021/06/12 02:53:14;;;;;;;5.90;5.20;;;22.50;98.20;;;;;;5129214;28;20229;-80
2021/06/12 02:55:42;;;;;;;5.25;4.93;;;22.50;98.40;;;;;;5129439;27;20213;-78
2021/06/12 02:58:13;;;;;;;5.78;5.20;;;22.50;98.40;;;;;;5129159;27;20223;-78
2021/06/12 03:00:40;;;;;;;4.90;4.53;;;22.40;98.40;;;;;;5128860;28;20651;-77
2021/06/12 03:03:07;;;;;;;6.85;4.90;;;22.20;98.50;;;;;;5129532;28;20213;-78
2021/06/12 03:05:38;;;;;;;5.47;5.18;;;22.10;98.50;;;;;;5128981;28;20240;-78
2021/06/12 03:08:06;;;;;;;5.07;4.68;;;22.20;98.60;;;;;;5129537;28;20211;-79
2021/06/12 03:10:35;;;;;;;5.88;5.35;;;22.10;98.70;;;;;;5129331;27;20258;-78
2021/06/12 03:13:05;;;;;;;5.38;5.07;;;21.80;98.90;;;;;;5129039;28;20664;-79
2021/06/12 03:15:34;;;;;;;5.10;4.73;;;21.80;98.80;;;;;;5129212;27;20189;-79
2021/06/12 03:18:01;;;;;;;5.00;4.70;;;21.60;99.30;;;;;;5129388;28;20293;-79
2021/06/12 03:20:28;;;;;;;4.90;4.50;;;21.40;99.50;;;;;;5129096;28;20258;-78
2021/06/12 03:23:00;;;;;;;5.10;4.80;;;21.60;99.60;;;;;;5129144;28;20205;-78
2021/06/12 03:25:27;;;;;;;4.80;4.50;;;21.80;99.30;;;;;;5129163;28;20193;-78
2021/06/12 03:27:53;;;;;;;4.70;4.30;;;21.70;99.10;;;;;;5129054;28;20225;-78
2021/06/12 03:30:20;;;;;;;5.22;4.70;;;21.80;99.10;;;;;;5129259;28;20208;-78
2021/06/12 03:32:47;;;;;;;5.32;4.63;;;21.90;99.00;;;;;;5128460;28;20694;-80
2021/06/12 03:35:14;;;;;;;5.13;4.70;;;22.00;98.70;;;;;;5128984;28;20201;-79
2021/06/12 03:37:41;;;;;;;4.67;4.27;;;21.90;98.70;;;;;;5128929;28;20209;-76
2021/06/12 03:40:10;;;;;;;5.03;4.47;;;22.00;98.80;;;;;;5128840;27;20256;-77
2021/06/12 03:42:36;;;;;;;4.53;4.15;;;22.10;98.70;;;;;;5130497;27;20210;-76
2021/06/12 03:45:05;;;;;;;4.18;3.97;;;22.20;98.80;;;;;;5132305;27;20208;-76
2021/06/12 03:47:32;;;;;;;4.60;4.30;;;22.10;98.40;;;;;;5131909;27;20575;-76
2021/06/12 03:50:01;;;;;;;4.63;4.22;;;22.00;98.60;;;;;;5132391;27;20225;-76
2021/06/12 03:52:29;;;;;;;4.43;4.10;;;22.10;98.60;;;;;;5132191;27;20622;-76
2021/06/12 03:54:57;;;;;;;4.35;4.05;;;22.30;98.50;;;;;;5132305;27;20225;-76
2021/06/12 03:57:24;;;;;;;4.25;3.95;;;22.40;98.40;;;;;;5132308;27;20201;-76
2021/06/12 03:59:51;;;;;;;4.32;4.13;;;22.50;98.30;;;;;;5131848;27;20197;-76
2021/06/12 04:02:17;;;;;;;5.78;4.20;;;22.30;98.20;;;;;;5132391;27;20217;-76
2021/06/12 04:04:45;;;;;;;4.18;3.70;;;22.30;98.30;;;;;;5131787;27;20229;-75
2021/06/12 04:07:12;;;;;;;4.15;3.83;;;22.40;98.40;;;;;;5131927;27;20606;-75
2021/06/12 04:09:38;;;;;;;4.10;3.80;;;22.50;98.40;;;;;;5131870;27;20208;-75
2021/06/12 04:12:06;;;;;;;4.22;3.92;;;22.60;98.40;;;;;;5131980;27;20268;-75
2021/06/12 04:14:32;;;;;;;3.83;3.60;;;22.60;98.20;;;;;;5131863;27;20346;-76
2021/06/12 04:16:58;;;;;;;4.03;3.70;;;22.70;98.10;;;;;;5131894;27;20232;-75
2021/06/12 04:19:25;;;;;;;4.20;4.00;;;22.70;98.00;;;;;;5131745;27;20202;-75
2021/06/12 04:21:51;;;;;;;5.25;3.45;;;22.70;98.00;;;;;;5131749;27;20551;-76
2021/06/12 04:24:18;;;;;;;4.78;4.32;;;22.70;98.00;;;;;;5131867;27;20252;-76
2021/06/12 04:26:45;;;;;;;9.75;4.45;;;22.50;98.10;;;;;;5131698;27;20221;-75
2021/06/12 04:29:11;;;;;;;3.83;3.60;;;22.40;98.40;;;;;;5131547;27;20656;-75
2021/06/12 04:31:37;;;;;;;6.55;4.13;;;22.30;98.60;;;;;;5131514;27;20205;-75
2021/06/12 04:34:03;;;;;;;4.20;3.90;;;22.20;98.80;;;;;;5131692;27;20238;-75
2021/06/12 04:36:29;;;;;;;4.03;3.73;;;22.20;98.90;;;;;;5131415;27;20206;-74
2021/06/12 04:38:55;;;;;;;4.32;3.95;;;22.30;98.90;;;;;;5131099;27;20213;-74
2021/06/12 04:41:22;;;;;;;15.80;5.20;;;22.30;99.00;;;;;;5130908;27;20205;-73
2021/06/12 04:43:49;;;;;;;4.78;4.03;;;22.40;98.90;;;;;;5131128;27;20205;-74
2021/06/12 04:46:15;;;;;;;4.53;4.18;;;22.40;99.10;;;;;;5131542;27;20580;-76
2021/06/12 04:48:41;;;;;;;4.65;4.35;;;22.30;99.30;;;;;;5131511;27;20209;-76
2021/06/12 04:51:07;;;;;;;4.40;4.20;;;22.30;99.30;;;;;;5131254;27;20253;-76
2021/06/12 04:53:34;;;;;;;4.93;4.63;;;22.20;99.50;;;;;;5130834;27;20229;-76
2021/06/12 04:56:00;;;;;;;4.93;4.63;;;22.40;99.60;;;;;;5131313;27;20210;-77
2021/06/12 04:58:27;;;;;;;4.68;4.40;;;22.10;99.50;;;;;;5131260;27;20205;-76
2021/06/12 05:00:54;;;;;;;5.25;4.85;;;22.00;99.90;;;;;;5131053;27;20205;-76
2021/06/12 05:03:20;;;;;;;4.88;4.30;;;22.00;99.90;;;;;;5131087;27;20261;-77
2021/06/12 05:05:47;;;;;;;5.67;5.00;;;22.00;99.90;;;;;;5130611;27;20269;-76
2021/06/12 05:08:13;;;;;;;5.47;4.50;;;21.80;99.90;;;;;;5131200;27;20250;-76
2021/06/12 05:10:39;;;;;;;5.07;4.77;;;21.90;99.90;;;;;;5130938;27;20206;-77
2021/06/12 05:13:06;;;;;;;6.90;4.77;;;21.70;99.90;;;;;;5130890;27;20687;-76
2021/06/12 05:15:34;;;;;;;4.85;4.45;;;21.90;99.90;;;;;;5130761;27;20209;-76
2021/06/12 05:18:03;;;;;;;6.30;4.93;;;22.00;99.90;;;;;;5130654;27;20270;-76
2021/06/12 05:20:30;;;;;;;5.38;5.07;;;21.80;99.90;;;;;;5131025;27;20213;-76
2021/06/12 05:22:56;;;;;;;5.60;4.57;;;21.70;99.90;;;;;;5130550;27;20259;-75
2021/06/12 05:25:22;;;;;;;4.97;4.60;;;21.60;99.90;;;;;;5130586;27;20290;-75
2021/06/12 05:27:49;;;;;;;5.25;4.72;;;21.70;99.90;;;;;;5130157;27;20706;-76
2021/06/12 05:30:16;;;;;;;5.80;4.53;;;21.70;99.90;;;;;;5130615;27;20566;-76
2021/06/12 05:32:43;;;;;;;5.23;4.83;;;21.80;99.90;;;;;;5130402;27;20225;-76
2021/06/12 05:35:10;;;;;;;4.95;4.65;;;21.90;99.90;;;;;;5130550;27;20201;-76
2021/06/12 05:37:37;;;;;;;4.72;4.43;;;22.00;99.90;;;;;;5130246;27;20201;-76
2021/06/12 05:40:05;;;;;;;4.60;4.20;;;22.10;99.90;;;;;;5130352;27;20222;-76
2021/06/12 05:42:31;;;;;;;4.85;4.45;;;21.80;99.90;;;;;;5130507;27;20262;-75
2021/06/12 05:44:57;;;;;;;4.73;4.33;;;21.60;99.90;;;;;;5126480;27;20664;-73
2021/06/12 05:47:23;;;;;;;4.70;4.30;;;21.60;99.90;;;;;;5129726;27;20567;-74
2021/06/12 05:49:51;;;;;;;4.87;4.57;;;21.40;99.90;;;;;;5114920;27;20656;-74
2021/06/12 05:52:17;;;;;;;6.23;4.47;;;21.30;99.90;;;;;;5119756;27;20221;-74
2021/06/12 05:54:45;;;;;;;4.10;3.80;;;21.40;99.90;;;;;;5108724;28;20209;-75
2021/06/12 05:57:11;;;;;;;4.60;4.17;;;21.20;99.90;;;;;;5108406;28;20667;-76
2021/06/12 05:59:37;;;;;;;3.70;3.47;;;21.30;99.90;;;;;;5108751;28;20259;-75
2021/06/12 06:02:04;;;;;;;3.90;3.60;;;21.10;99.90;;;;;;5108709;28;20198;-75
2021/06/12 06:04:30;;;;;;;4.27;3.97;;;21.10;99.90;;;;;;5107773;28;20546;-75
2021/06/12 06:06:57;;;;;;;4.27;4.00;;;21.00;99.90;;;;;;5110650;27;20223;-76
2021/06/12 06:09:23;;;;;;;3.40;3.20;;;21.10;99.90;;;;;;5127508;27;20255;-77
2021/06/12 06:11:50;;;;;;;3.63;3.37;;;21.10;99.90;;;;;;5127239;27;20213;-77
2021/06/12 06:14:16;;;;;;;2.90;2.80;;;21.20;99.90;;;;;;5112758;28;20206;-76
2021/06/12 06:16:42;;;;;;;3.33;3.13;;;21.10;99.90;;;;;;5106516;28;20206;-76
2021/06/12 06:19:09;;;;;;;3.33;3.13;;;21.10;99.90;;;;;;5107353;28;20202;-76
2021/06/12 06:21:35;;;;;;;3.50;3.27;;;21.10;99.90;;;;;;5106934;28;20263;-77
2021/06/12 06:24:04;;;;;;;4.17;3.63;;;21.20;99.90;;;;;;5106652;28;20859;-77
2021/06/12 06:26:30;;;;;;;3.23;3.03;;;21.10;99.90;;;;;;5107723;28;20589;-77
2021/06/12 06:28:56;;;;;;;3.27;3.00;;;21.10;99.90;;;;;;5107335;27;20564;-76
2021/06/12 06:31:22;;;;;;;3.63;3.47;;;21.20;99.90;;;;;;5108863;28;20202;-76
2021/06/12 06:33:48;;;;;;;5.30;3.20;;;21.20;99.90;;;;;;5111972;28;20265;-77
2021/06/12 06:36:14;;;;;;;6.80;3.40;;;21.20;99.90;;;;;;5127575;28;20201;-77
2021/06/12 06:38:41;;;;;;;3.30;3.10;;;21.20;99.90;;;;;;5127385;28;20260;-77
2021/06/12 06:41:08;;;;;;;4.17;3.50;;;21.10;99.90;;;;;;5123759;28;20223;-75
2021/06/12 06:43:34;;;;;;;3.80;3.43;;;21.00;99.90;;;;;;5111011;28;20938;-76
2021/06/12 06:46:00;;;;;;;3.87;3.57;;;21.10;99.90;;;;;;5114172;28;20671;-76
2021/06/12 06:48:27;;;;;;;4.13;3.50;;;21.20;99.90;;;;;;5116389;28;20219;-76
2021/06/12 06:50:53;;;;;;;4.53;3.80;;;21.30;99.90;;;;;;5114355;28;20784;-77
2021/06/12 06:53:20;;;;;;;4.30;4.00;;;21.40;99.90;;;;;;5116149;28;20750;-77
2021/06/12 06:55:46;;;;;;;5.33;4.17;;;21.30;99.90;;;;;;5122200;28;20221;-76
2021/06/12 06:58:13;;;;;;;4.60;4.20;;;21.30;99.90;;;;;;5126414;28;20209;-77
2021/06/12 07:00:39;;;;;;;4.10;3.70;;;21.10;99.90;;;;;;5126518;28;20209;-76
2021/06/12 07:03:06;;;;;;;4.33;4.03;;;21.30;99.90;;;;;;5123939;28;20278;-76
2021/06/12 07:05:32;;;;;;;4.70;4.40;;;21.40;99.90;;;;;;5123198;28;20286;-76
2021/06/12 07:07:58;;;;;;;4.70;4.40;;;21.30;99.90;;;;;;5126646;28;20205;-76
2021/06/12 07:10:24;;;;;;;4.37;4.17;;;21.30;99.90;;;;;;5115252;28;20305;-76
2021/06/12 07:12:50;;;;;;;5.33;4.93;;;21.30;99.90;;;;;;5126579;28;20233;-76
2021/06/12 07:15:19;;;;;;;5.00;4.60;;;21.20;99.90;;;;;;5126795;27;20208;-76
2021/06/12 07:17:45;;;;;;;4.33;4.10;;;21.20;99.90;;;;;;5131171;27;20205;-76
2021/06/12 07:20:12;;;;;;;5.13;4.73;;;21.20;99.90;;;;;;5130834;27;20209;-75
2021/06/12 07:22:38;;;;;;;6.20;5.33;;;21.30;99.90;;;;;;5130394;27;20261;-75
2021/06/12 07:25:05;;;;;;;4.73;4.43;;;21.30;99.90;;;;;;5130370;27;20241;-76
2021/06/12 07:27:32;;;;;;;4.97;4.67;;;21.30;99.90;;;;;;5127012;27;20592;-77
2021/06/12 07:29:58;;;;;;;4.93;4.47;;;21.30;99.90;;;;;;5112131;27;20213;-78
2021/06/12 07:32:26;;;;;;;5.40;5.00;;;21.50;99.90;;;;;;5123202;27;20738;-76
2021/06/12 07:34:52;;;;;;;4.87;4.57;;;21.50;99.90;;;;;;5109310;27;20213;-77
2021/06/12 07:37:18;;;;;;;6.33;5.30;;;21.70;99.90;;;;;;5109631;28;20206;-78
2021/06/12 07:39:44;;;;;;;6.27;5.83;;;21.60;99.90;;;;;;5120330;27;20198;-79
2021/06/12 07:42:11;;;;;;;8.60;6.20;;;21.20;99.90;;;;;;5120736;27;20225;-78
2021/06/12 07:44:37;;;;;;;6.20;5.80;;;21.20;99.90;;;;;;5112096;27;20208;-78
2021/06/12 07:47:03;;;;;;;6.30;5.80;;;21.30;99.90;;;;;;5113557;27;20217;-78
2021/06/12 07:49:31;;;;;;;5.63;5.23;;;21.20;99.90;;;;;;5111939;28;20206;-79
2021/06/12 07:51:57;;;;;;;7.20;6.70;;;21.30;99.90;;;;;;5111172;28;20230;-78
2021/06/12 07:54:23;;;;;;;7.60;7.00;;;21.30;99.90;;;;;;5111594;28;20436;-78
2021/06/12 07:56:49;;;;;;;7.60;6.83;;;21.40;99.90;;;;;;5130353;27;20197;-78
2021/06/12 07:59:16;;;;;;;7.37;6.70;;;21.30;99.90;;;;;;5132025;27;20207;-78
2021/06/12 08:01:42;;;;;;;8.40;7.60;;;21.20;99.90;;;;;;5131781;27;20209;-78
2021/06/12 08:04:08;;;;;;;8.27;7.60;;;21.20;99.90;;;;;;5131751;27;20237;-78
2021/06/12 08:06:35;;;;;;;7.83;7.10;;;21.10;99.90;;;;;;5131994;27;20197;-78
2021/06/12 08:09:02;;;;;;;6.93;6.33;;;21.20;99.90;;;;;;5130941;27;20659;-77
2021/06/12 08:11:28;;;;;;;7.33;6.73;;;21.30;99.90;;;;;;5131924;27;20220;-78
2021/06/12 08:13:54;;;;;;;8.10;7.40;;;21.30;99.90;;;;;;5131653;27;20229;-78
2021/06/12 08:16:20;;;;;;;6.50;5.97;;;21.40;99.90;;;;;;5131780;27;20719;-79
2021/06/12 08:18:47;;;;;;;8.07;7.27;;;21.60;99.90;;;;;;5131505;27;20649;-79
2021/06/12 08:21:13;;;;;;;6.37;5.87;;;21.70;99.90;;;;;;5131469;27;20216;-79
2021/06/12 08:23:41;;;;;;;6.83;6.13;;;21.70;99.90;;;;;;5131481;27;20208;-78
2021/06/12 08:26:07;;;;;;;7.60;7.00;;;21.80;99.90;;;;;;5131653;27;20250;-78
2021/06/12 08:28:33;;;;;;;8.53;7.77;;;21.70;99.90;;;;;;5130209;27;20689;-78
2021/06/12 08:31:00;;;;;;;9.43;8.53;;;21.70;99.90;;;;;;5130891;27;20206;-78
2021/06/12 08:33:26;;;;;;;10.97;9.23;;;21.50;99.90;;;;;;5131244;27;20743;-79
2021/06/12 08:35:52;;;;;;;10.47;8.93;;;21.40;99.90;;;;;;5131388;27;20205;-78
2021/06/12 08:38:18;;;;;;;10.20;9.27;;;21.30;99.90;;;;;;5131265;27;20209;-78
2021/06/12 08:40:48;;;;;;;9.47;8.63;;;21.30;99.90;;;;;;5131248;27;20201;-78
2021/06/12 08:43:20;;;;;;;10.03;8.50;;;21.50;99.90;;;;;;5131037;27;20209;-78
2021/06/12 08:45:46;;;;;;;9.30;8.40;;;21.50;99.90;;;;;;5131121;27;20205;-78
2021/06/12 08:48:14;;;;;;;10.20;9.30;;;21.60;99.90;;;;;;5130821;27;20212;-78
2021/06/12 08:50:40;;;;;;;10.83;9.83;;;21.60;99.90;;;;;;5131203;27;20237;-78
2021/06/12 08:53:06;;;;;;;10.17;9.23;;;21.70;99.90;;;;;;5130873;27;20233;-78
2021/06/12 08:55:33;;;;;;;9.53;8.43;;;21.70;99.90;;;;;;5130503;27;20659;-78
2021/06/12 08:58:00;;;;;;;10.13;9.07;;;21.80;99.90;;;;;;5130808;27;20246;-78
2021/06/12 09:00:26;;;;;;;10.27;9.27;;;21.70;99.90;;;;;;5130674;27;20243;-79
2021/06/12 09:03:14;;;;;;;9.60;8.80;;;21.60;99.90;;;;;;5130800;27;20205;-78
2021/06/12 09:05:43;;;;;;;10.67;9.77;;;21.50;99.90;;;;;;5130137;27;20237;-78
2021/06/12 09:08:12;;;;;;;10.23;9.23;;;21.30;99.90;;;;;;5130699;27;20205;-78
2021/06/12 09:10:51;;;;;;;9.87;8.87;;;21.30;99.90;;;;;;5130836;27;20217;-78
2021/06/12 09:13:41;;;;;;;10.10;9.20;;;21.30;99.90;;;;;;5130725;27;20221;-78
2021/06/12 09:16:20;;;;;;;11.47;10.27;;;21.30;99.90;;;;;;5128455;27;20194;-78
2021/06/12 09:18:46;;;;;;;15.00;11.83;;;21.30;99.90;;;;;;5109832;28;20340;-79
2021/06/12 09:21:24;;;;;;;14.13;12.43;;;21.10;99.90;;;;;;5109959;28;20206;-78
2021/06/12 09:23:52;;;;;;;15.73;13.67;;;20.80;99.90;;;;;;5109913;28;20190;-78
2021/06/12 09:26:19;;;;;;;15.67;13.30;;;20.50;99.90;;;;;;5109836;28;20263;-78
2021/06/12 09:28:50;;;;;;;14.27;12.87;;;20.40;99.90;;;;;;5109513;28;20671;-77
2021/06/12 09:31:18;;;;;;;15.70;14.10;;;20.30;99.90;;;;;;5109798;28;20210;-78
2021/06/12 09:33:44;;;;;;;14.60;13.20;;;20.20;99.90;;;;;;5115810;27;20736;-77
2021/06/12 09:36:11;;;;;;;14.10;12.47;;;20.30;99.90;;;;;;5130120;27;20202;-78
2021/06/12 09:38:38;;;;;;;22.10;13.40;;;20.40;99.90;;;;;;5130021;27;20201;-78
2021/06/12 09:41:23;;;;;;;15.23;13.73;;;20.30;99.90;;;;;;5130021;27;20217;-78
2021/06/12 09:43:51;;;;;;;15.47;13.37;;;20.40;99.90;;;;;;5130088;27;20230;-79
2021/06/12 09:46:38;;;;;;;14.47;12.60;;;20.40;99.90;;;;;;5128873;27;20209;-78
2021/06/12 09:49:06;;;;;;;14.40;13.10;;;20.50;99.90;;;;;;5129826;27;20483;-78
2021/06/12 09:51:33;;;;;;;14.77;13.20;;;20.50;99.90;;;;;;5130165;27;20271;-78
2021/06/12 09:54:01;;;;;;;14.27;12.87;;;20.50;99.90;;;;;;5129433;27;21010;-78
2021/06/12 09:56:28;;;;;;;13.43;12.13;;;20.50;99.90;;;;;;5129512;27;20667;-78
2021/06/12 09:58:57;;;;;;;12.07;10.93;;;20.50;99.90;;;;;;5129244;27;20659;-78
2021/06/12 10:01:24;;;;;;;12.50;11.50;;;20.50;99.90;;;;;;5129792;27;20212;-78
2021/06/12 10:04:12;;;;;;;11.77;10.67;;;20.60;99.90;;;;;;5129399;27;20771;-78
2021/06/12 10:06:39;;;;;;;11.80;10.80;;;20.60;99.90;;;;;;5129454;27;20218;-78
2021/06/12 10:09:06;;;;;;;12.80;11.20;;;20.60;99.90;;;;;;5129058;27;20211;-78
2021/06/12 10:11:35;;;;;;;11.17;10.07;;;20.70;99.90;;;;;;5129737;27;20201;-78
2021/06/12 10:14:04;;;;;;;11.13;10.13;;;20.50;99.90;;;;;;5129327;27;20233;-78
2021/06/12 10:16:36;;;;;;;10.67;9.90;;;20.70;99.90;;;;;;5129563;27;20206;-77
2021/06/12 10:19:06;;;;;;;10.80;9.90;;;20.90;99.90;;;;;;5129458;27;20185;-78
2021/06/12 10:21:32;;;;;;;10.07;9.27;;;20.80;99.90;;;;;;5129363;27;20221;-78
2021/06/12 10:24:04;;;;;;;10.57;9.47;;;20.80;99.90;;;;;;5129211;27;20611;-77
2021/06/12 10:26:31;;;;;;;9.03;8.17;;;20.90;99.90;;;;;;5129367;27;20232;-79
2021/06/12 10:28:57;;;;;;;9.20;8.43;;;21.10;99.90;;;;;;5129196;27;20208;-78
2021/06/12 10:31:26;;;;;;;8.80;8.10;;;21.10;99.90;;;;;;5129350;28;20691;-78
2021/06/12 10:33:55;;;;;;;9.57;8.37;;;21.20;99.90;;;;;;5129090;28;20240;-77
2021/06/12 10:36:23;;;;;;;12.00;9.80;;;21.20;99.90;;;;;;5128937;28;20703;-78
2021/06/12 10:38:51;;;;;;;8.80;8.03;;;21.40;99.90;;;;;;5128846;28;20197;-78
2021/06/12 10:41:19;;;;;;;7.33;6.73;;;21.60;99.90;;;;;;5128995;28;20222;-77
2021/06/12 10:43:46;;;;;;;8.00;7.23;;;21.60;99.90;;;;;;5129297;28;20209;-78
2021/06/12 10:46:16;;;;;;;7.87;7.17;;;21.70;99.90;;;;;;5129125;28;20208;-78
2021/06/12 10:48:46;;;;;;;7.43;6.83;;;21.60;99.90;;;;;;5129146;28;20205;-78
2021/06/12 10:51:14;;;;;;;7.30;6.53;;;21.60;99.90;;;;;;5130332;27;20718;-79
2021/06/12 10:53:43;;;;;;;10.87;6.60;;;21.70;99.90;;;;;;5133258;27;20237;-78
2021/06/12 10:56:30;;;;;;;6.50;5.97;;;21.80;99.90;;;;;;5133184;27;20569;-78
2021/06/12 10:58:56;;;;;;;6.20;5.70;;;21.90;99.90;;;;;;5127397;27;20628;-78
2021/06/12 11:01:24;;;;;;;5.97;5.57;;;21.90;99.90;;;;;;5130101;27;20220;-78
2021/06/12 11:04:02;;;;;;;5.90;5.47;;;21.80;99.90;;;;;;5132605;27;20295;-79
2021/06/12 11:06:37;;;;;;;5.90;5.53;;;21.80;99.90;;;;;;5131606;27;20193;-79
2021/06/12 11:09:39;;;;;;;5.30;4.80;;;21.80;99.90;;;;;;5130266;27;20196;-78
2021/06/12 11:12:27;;;;;;;5.47;5.00;;;21.60;99.90;;;;;;5130206;27;20213;-78
2021/06/12 11:14:57;;;;;;;5.20;4.80;;;21.60;99.90;;;;;;5131141;27;20197;-79
2021/06/12 11:17:23;;;;;;;6.20;5.20;;;21.60;99.90;;;;;;5131612;27;20190;-79
2021/06/12 11:20:11;;;;;;;4.77;4.33;;;21.60;99.90;;;;;;5131987;27;20201;-78
2021/06/12 11:22:39;;;;;;;4.83;4.43;;;21.70;99.90;;;;;;5131368;27;20201;-78
2021/06/12 11:25:41;;;;;;;4.67;4.37;;;21.70;99.90;;;;;;5131335;27;20227;-78
2021/06/12 11:28:23;;;;;;;5.27;4.73;;;21.70;99.90;;;;;;5127155;27;20197;-78
2021/06/12 11:30:50;;;;;;;7.07;4.40;;;21.90;99.90;;;;;;5129621;27;20527;-78
2021/06/12 11:33:17;;;;;;;5.50;5.00;;;22.00;99.90;;;;;;5131691;27;20225;-78
2021/06/12 11:35:50;;;;;;;5.00;4.60;;;22.00;99.90;;;;;;5131391;27;20248;-79
2021/06/12 11:38:19;;;;;;;5.30;4.20;;;22.10;99.90;;;;;;5131672;27;20197;-78
2021/06/12 11:40:54;;;;;;;4.30;4.00;;;22.30;99.90;;;;;;5131994;27;20200;-78
2021/06/12 11:43:35;;;;;;;4.90;4.50;;;22.20;99.90;;;;;;5132315;27;20670;-79
2021/06/12 11:46:04;;;;;;;4.20;4.00;;;22.10;99.90;;;;;;5131647;27;20293;-81
2021/06/12 11:48:30;;;;;;;4.27;3.97;;;22.10;99.90;;;;;;5131821;27;20205;-78
2021/06/12 11:51:10;;;;;;;4.13;3.83;;;22.10;99.90;;;;;;5131962;27;20229;-78
2021/06/12 11:53:36;;;;;;;4.87;3.80;;;22.00;99.90;;;;;;5132144;27;20286;-84
2021/06/12 11:56:03;;;;;;;4.63;4.10;;;22.00;99.90;;;;;;5131834;27;20291;-79
2021/06/12 11:58:29;;;;;;;3.73;3.53;;;21.80;99.90;;;;;;5132022;27;20205;-78
2021/06/12 12:00:55;;;;;;;4.13;3.83;;;21.70;99.90;;;;;;5131837;27;20243;-78
2021/06/12 12:03:22;;;;;;;3.70;3.50;;;21.80;99.90;;;;;;5130733;27;20201;-78
2021/06/12 12:05:51;;;;;;;3.90;3.70;;;21.80;99.90;;;;;;5131590;27;20241;-78
2021/06/12 12:08:20;;;;;;;4.20;3.80;;;21.70;99.90;;;;;;5128632;27;20197;-78
2021/06/12 12:10:50;;;;;;;3.67;3.47;;;21.70;99.90;;;;;;5131803;27;20212;-78
2021/06/12 12:13:33;;;;;;;12.83;3.80;;;21.60;99.90;;;;;;5131855;27;20233;-78
2021/06/12 12:16:00;;;;;;;2.50;2.30;;;21.50;99.90;;;;;;5131504;27;20200;-78
2021/06/12 12:18:26;;;;;;;2.57;2.20;;;21.60;99.90;;;;;;5131760;27;21024;-78
2021/06/12 12:20:56;;;;;;;2.43;2.23;;;21.40;99.90;;;;;;5131408;27;20201;-78
2021/06/12 12:23:26;;;;;;;4.13;2.50;;;21.40;99.90;;;;;;5132209;27;20557;-78
2021/06/12 12:26:05;;;;;;;3.37;2.40;;;21.40;99.90;;;;;;5131342;27;20257;-77
2021/06/12 12:28:31;;;;;;;9.10;2.50;;;21.30;99.90;;;;;;5131611;27;20190;-78
2021/06/12 12:31:06;;;;;;;2.90;2.70;;;21.30;99.90;;;;;;5131445;27;20214;-78
2021/06/12 12:33:44;;;;;;;2.83;2.63;;;21.30;99.90;;;;;;5131434;27;20224;-78
2021/06/12 12:36:10;;;;;;;2.80;2.30;;;20.90;99.90;;;;;;5131449;27;20185;-77
2021/06/12 12:38:39;;;;;;;2.83;2.60;;;21.00;99.90;;;;;;5131460;27;20257;-78
2021/06/12 12:41:08;;;;;;;3.03;2.50;;;21.10;99.90;;;;;;5131175;27;20220;-78
2021/06/12 12:43:35;;;;;;;2.67;2.53;;;21.20;99.90;;;;;;5131228;27;20233;-78
2021/06/12 12:46:04;;;;;;;2.80;2.60;;;21.30;99.90;;;;;;5131220;27;20247;-78
2021/06/12 12:48:32;;;;;;;2.70;2.50;;;21.20;99.90;;;;;;5131387;27;20205;-78
2021/06/12 12:50:58;;;;;;;2.93;2.77;;;20.70;99.90;;;;;;5130638;27;20229;-77
2021/06/12 12:53:25;;;;;;;3.10;2.90;;;20.40;99.90;;;;;;5130956;27;20313;-78